Winterport, Maine
Current Conditions -  °F | °C
As of 4:53 AM on Thursday 23 Oct 2014 (Local Time) from KBGR Reporting Station
Overcast Overcast  
Wind Chill: 42°   Ceiling: 800
Heat Index: 48°   Visibility: 10mi
Dew Point: 45°   Wind: 17mph
Humidity: 89%   Direction: 30°NNE
Pressure: 29.98"   Gusts: 26mph
Location:  44.65°N, 68.86°W
Report Text: KBGR 230853Z 03015G23KT 10SM OVC008 09/07 A2998 RMK AO2 DZB0754E34RAB34E44 CIG 007V011 SLP152 P0002 60003 T00890072 56026
Loading
Personal Weather Stations






























Interactive Weather Map New forecast layout! Learn more

10-Day Weather Forecast

Advertisements
Track Severe Weather on mobile